Time;durP1;ratioP1;P1;durP2;ratioP2;P2;SDS_P1;SDS_P2;PMS_P1;PMS_P2;Temp;Humidity;BMP_temperature;BMP_pressure;BME280_temperature;BME280_humidity;BME280_pressure;Samples;Min_cycle;Max_cycle;Signal;HPM_P1;HPM_P2
2022/02/19 00:00:09;;;;;;;13.15;5.53;;;;;;;1.51;71.07;98697.98;1768826;80;21495;-39
2022/02/19 00:02:40;;;;;;;12.35;5.65;;;;;;;1.52;71.06;98691.55;1758894;80;21016;-39
2022/02/19 00:05:07;;;;;;;12.53;5.72;;;;;;;1.51;71.07;98683.84;1750081;80;20995;-39
2022/02/19 00:07:35;;;;;;;11.80;5.62;;;;;;;1.49;71.18;98682.05;1752759;80;21068;-39
2022/02/19 00:10:04;;;;;;;12.40;5.58;;;;;;;1.48;71.13;98686.60;1771960;80;21162;-39
2022/02/19 00:12:31;;;;;;;15.85;6.67;;;;;;;1.53;71.06;98678.98;1768824;80;20997;-39
2022/02/19 00:14:59;;;;;;;11.57;5.92;;;;;;;1.55;70.99;98676.78;1757628;80;21081;-39
2022/02/19 00:17:26;;;;;;;14.83;6.75;;;;;;;1.55;71.05;98668.77;1758723;80;20949;-39
2022/02/19 00:19:55;;;;;;;12.53;5.90;;;;;;;1.51;71.07;98673.16;1750109;80;21545;-39
2022/02/19 00:22:21;;;;;;;12.03;5.73;;;;;;;1.48;71.07;98673.80;1766330;80;21989;-39
2022/02/19 00:24:48;;;;;;;12.82;6.10;;;;;;;1.45;71.18;98663.75;1773530;80;21396;-39
2022/02/19 00:27:15;;;;;;;13.32;5.45;;;;;;;1.44;71.18;98656.84;1751146;80;20990;-39
2022/02/19 00:29:45;;;;;;;13.10;4.90;;;;;;;1.44;71.14;98643.48;1773120;80;21050;-39
2022/02/19 00:32:12;;;;;;;11.60;5.28;;;;;;;1.51;70.90;98639.22;1773151;80;21088;-39
2022/02/19 00:34:38;;;;;;;12.00;5.45;;;;;;;1.55;70.74;98638.05;1752425;80;21938;-39
2022/02/19 00:37:05;;;;;;;15.72;6.00;;;;;;;1.53;70.61;98631.69;1766354;80;20985;-39
2022/02/19 00:39:32;;;;;;;14.00;5.83;;;;;;;1.53;70.56;98622.88;1761884;80;21531;-39
2022/02/19 00:42:01;;;;;;;12.75;5.83;;;;;;;1.52;70.40;98634.66;1758448;80;21033;-39
2022/02/19 00:44:30;;;;;;;12.98;6.62;;;;;;;1.48;70.35;98620.38;1762009;80;21571;-39
2022/02/19 00:46:59;;;;;;;10.10;5.47;;;;;;;1.46;70.47;98626.58;1766475;80;21717;-38
2022/02/19 00:49:27;;;;;;;11.03;5.80;;;;;;;1.41;70.53;98626.19;1750733;80;21059;-39
2022/02/19 00:51:54;;;;;;;14.40;5.70;;;;;;;1.37;70.60;98628.48;1757337;80;21772;-39
2022/02/19 00:54:21;;;;;;;13.20;6.00;;;;;;;1.40;70.60;98630.53;1767056;80;21072;-39
2022/02/19 00:56:49;;;;;;;12.05;5.83;;;;;;;1.43;70.51;98617.88;1764017;80;21570;-39
2022/02/19 00:59:16;;;;;;;12.33;6.35;;;;;;;1.38;70.60;98610.02;1764932;80;21175;-39
2022/02/19 01:01:44;;;;;;;11.83;5.87;;;;;;;1.35;70.66;98606.11;1752850;80;21586;-39
2022/02/19 01:04:12;;;;;;;15.55;5.90;;;;;;;1.35;70.56;98609.33;1758755;80;21069;-39
2022/02/19 01:06:39;;;;;;;13.25;6.22;;;;;;;1.28;70.71;98613.80;1755050;80;21035;-39
2022/02/19 01:09:06;;;;;;;17.20;6.55;;;;;;;1.25;70.79;98600.55;1749774;80;21042;-39
2022/02/19 01:11:39;;;;;;;13.60;6.20;;;;;;;0.79;70.80;98530.48;1770919;80;21578;-39
2022/02/19 01:14:03;;;;;;;15.95;6.05;;;;;;;1.22;70.86;98591.03;1760195;80;21012;-39
2022/02/19 01:16:30;;;;;;;11.95;5.83;;;;;;;1.23;70.92;98582.72;1766439;80;21519;-39
2022/02/19 01:18:57;;;;;;;12.70;6.08;;;;;;;1.30;70.74;98580.91;1751459;80;20925;-39
2022/02/19 01:21:24;;;;;;;13.40;5.85;;;;;;;1.33;70.68;98582.15;1752666;80;21756;-39
2022/02/19 01:23:51;;;;;;;11.45;5.97;;;;;;;1.36;70.64;98570.82;1756398;80;21156;-39
2022/02/19 01:26:17;;;;;;;11.63;5.72;;;;;;;1.35;70.60;98567.94;1760701;80;20942;-39
2022/02/19 01:28:45;;;;;;;17.98;6.22;;;;;;;1.34;70.56;98563.15;1770859;80;21051;-39
2022/02/19 01:31:13;;;;;;;10.18;5.40;;;;;;;1.34;70.53;98563.70;1771772;80;21475;-39
2022/02/19 01:33:39;;;;;;;12.80;5.20;;;;;;;1.36;70.50;98558.26;1701588;84;20995;-39
2022/02/19 01:36:08;;;;;;;14.05;6.42;;;;;;;1.40;70.45;98553.09;1756799;80;21572;-39
2022/02/19 01:38:35;;;;;;;15.68;6.10;;;;;;;1.41;70.33;98546.07;1760709;80;20985;-39
2022/02/19 01:41:03;;;;;;;13.45;5.42;;;;;;;1.43;70.31;98549.77;1755931;80;21043;-39
2022/02/19 01:43:31;;;;;;;13.00;6.17;;;;;;;1.45;70.23;98546.24;1702734;80;21118;-39
2022/02/19 01:45:57;;;;;;;12.20;5.33;;;;;;;1.48;70.13;98546.92;1765509;80;21535;-39
2022/02/19 01:48:24;;;;;;;11.97;6.25;;;;;;;1.50;69.99;98542.81;1765545;80;21147;-39
2022/02/19 01:50:51;;;;;;;13.58;6.15;;;;;;;1.49;69.93;98541.27;1759975;80;21526;-39
2022/02/19 01:53:18;;;;;;;16.10;6.47;;;;;;;1.52;69.86;98533.95;1768883;80;20988;-39
2022/02/19 01:55:47;;;;;;;14.25;6.15;;;;;;;1.49;69.84;98527.14;1766074;80;21021;-39
2022/02/19 01:58:19;;;;;;;16.17;6.03;;;;;;;1.52;69.78;98532.61;1770938;80;21033;-39
2022/02/19 02:00:53;;;;;;;12.55;5.70;;;;;;;1.54;69.86;98529.08;1727196;80;21845;-39
2022/02/19 02:03:38;;;;;;;10.60;5.75;;;;;;;1.59;69.58;98544.15;1764716;80;20949;-39
2022/02/19 02:06:06;;;;;;;16.17;6.00;;;;;;;1.58;69.64;98531.89;1756273;80;21001;-39
2022/02/19 02:08:34;;;;;;;12.73;5.75;;;;;;;1.63;69.53;98541.06;1745890;80;21024;-39
2022/02/19 02:11:02;;;;;;;11.45;6.10;;;;;;;1.65;69.40;98536.95;1781722;80;21084;-39
2022/02/19 02:13:31;;;;;;;11.30;5.50;;;;;;;1.67;69.34;98538.77;1763396;80;21117;-40
2022/02/19 02:15:58;;;;;;;11.88;6.33;;;;;;;1.65;69.29;98542.84;1771528;80;20968;-39
2022/02/19 02:18:26;;;;;;;13.32;6.53;;;;;;;1.69;69.30;98533.87;1772912;80;20957;-40
2022/02/19 02:20:54;;;;;;;15.65;6.25;;;;;;;1.74;69.16;98526.25;1754191;80;21516;-39
2022/02/19 02:23:21;;;;;;;12.98;6.08;;;;;;;1.75;69.06;98523.79;1765384;80;21529;-39
2022/02/19 02:25:48;;;;;;;13.38;6.10;;;;;;;1.76;68.92;98518.68;1757084;80;21106;-39
2022/02/19 02:28:19;;;;;;;14.07;7.07;;;;;;;1.78;68.87;98512.48;1763485;80;21028;-39
2022/02/19 02:30:46;;;;;;;12.28;5.62;;;;;;;1.82;68.79;98517.95;1780961;80;20915;-40
2022/02/19 02:33:19;;;;;;;11.95;5.87;;;;;;;1.83;68.59;98516.30;1765611;80;20965;-39
2022/02/19 02:35:49;;;;;;;12.93;6.37;;;;;;;1.80;68.38;98516.93;1771260;80;21597;-39
2022/02/19 02:38:18;;;;;;;14.00;6.62;;;;;;;1.81;68.28;98501.69;1774102;80;21144;-39
2022/02/19 02:40:45;;;;;;;15.03;6.40;;;;;;;1.84;68.22;98487.11;1770364;80;21020;-39
2022/02/19 02:43:12;;;;;;;11.33;6.17;;;;;;;1.86;68.27;98480.91;1769240;80;21038;-39
2022/02/19 02:45:39;;;;;;;14.43;6.42;;;;;;;1.87;68.16;98485.15;1778268;80;21487;-39
2022/02/19 02:48:09;;;;;;;11.57;5.20;;;;;;;1.92;68.15;98490.86;1761880;80;21586;-40
2022/02/19 02:50:35;;;;;;;11.60;5.85;;;;;;;1.91;68.02;98479.39;1770406;80;21104;-39
2022/02/19 02:53:02;;;;;;;11.20;5.25;;;;;;;1.95;67.77;98483.52;1762518;80;21031;-40
2022/02/19 02:55:29;;;;;;;14.03;5.72;;;;;;;1.98;67.63;98489.58;1767263;80;20998;-40
2022/02/19 02:57:56;;;;;;;11.60;5.58;;;;;;;1.99;67.43;98490.57;1768103;80;21076;-40
2022/02/19 03:00:23;;;;;;;14.50;5.55;;;;;;;1.99;67.48;98491.91;1766191;80;21087;-39
2022/02/19 03:02:49;;;;;;;10.55;5.40;;;;;;;2.00;67.08;98490.80;1759754;80;21122;-39
2022/02/19 03:08:18;;;;;;;11.30;4.72;;;;;;;2.12;66.82;98495.46;1808346;78;22136;-39
2022/02/19 03:10:46;;;;;;;11.88;4.65;;;;;;;2.10;66.72;98495.78;1778967;79;21195;-39
2022/02/19 03:13:13;;;;;;;11.15;4.75;;;;;;;2.13;66.32;98481.75;1773315;79;21123;-39
2022/02/19 03:15:44;;;;;;;12.13;4.67;;;;;;;2.17;66.20;98478.68;1772364;79;21028;-39
2022/02/19 03:18:10;;;;;;;8.73;3.80;;;;;;;2.21;66.17;98454.73;1792479;79;20992;-39
2022/02/19 03:20:39;;;;;;;10.95;4.78;;;;;;;2.25;65.79;98456.20;1777796;79;20960;-39
2022/02/19 03:23:07;;;;;;;9.95;4.30;;;;;;;2.29;65.57;98453.09;1781452;79;21015;-39
2022/02/19 03:25:38;;;;;;;11.48;4.30;;;;;;;2.31;65.28;98450.89;1780168;79;20957;-39
2022/02/19 03:28:06;;;;;;;10.60;4.97;;;;;;;2.37;65.18;98446.91;1779535;79;20941;-39
2022/02/19 03:30:33;;;;;;;13.03;4.35;;;;;;;2.37;64.98;98442.31;1796037;78;20922;-39
2022/02/19 03:33:02;;;;;;;11.83;4.53;;;;;;;2.42;64.97;98449.39;1793810;79;21592;-39
2022/02/19 03:35:29;;;;;;;7.33;4.10;;;;;;;2.42;64.82;98442.70;1749039;81;21276;-39
2022/02/19 03:37:56;;;;;;;8.95;4.37;;;;;;;2.43;64.57;98437.00;1801665;79;21120;-39
2022/02/19 03:40:33;;;;;;;10.28;4.70;;;;;;;2.45;64.35;98432.67;1774058;79;21008;-39
2022/02/19 03:43:02;;;;;;;11.35;4.10;;;;;;;2.43;64.58;98424.97;1781676;79;21511;-39
2022/02/19 03:45:29;;;;;;;9.80;4.15;;;;;;;2.47;64.50;98425.11;1791621;79;21083;-39
2022/02/19 03:47:58;;;;;;;9.48;4.42;;;;;;;2.49;64.34;98422.32;1776167;79;21041;-39
2022/02/19 03:50:24;;;;;;;8.75;4.28;;;;;;;2.52;64.16;98407.49;1779451;79;21122;-39
2022/02/19 03:52:51;;;;;;;9.63;4.35;;;;;;;2.54;63.92;98405.28;1790048;79;20972;-39
2022/02/19 03:55:23;;;;;;;9.33;4.00;;;;;;;2.56;63.38;98407.09;1787088;79;21049;-39
2022/02/19 03:57:50;;;;;;;10.75;4.35;;;;;;;2.61;63.33;98389.48;1780670;79;21029;-39
2022/02/19 04:00:17;;;;;;;9.78;3.80;;;;;;;2.61;63.03;98378.78;1784687;79;21032;-39
2022/02/19 04:02:43;;;;;;;10.60;3.92;;;;;;;2.66;62.87;98371.10;1782085;79;21766;-39
2022/02/19 04:05:12;;;;;;;9.73;3.98;;;;;;;2.70;62.81;98369.32;1794885;79;20969;-40
2022/02/19 04:07:42;;;;;;;8.20;3.60;;;;;;;2.71;62.40;98390.38;1752260;79;21041;-39
2022/02/19 04:10:10;;;;;;;7.70;3.30;;;;;;;2.75;62.14;98388.62;1788202;79;21028;-39
2022/02/19 04:12:40;;;;;;;8.63;3.52;;;;;;;2.76;61.96;98408.16;1795999;79;21013;-39
2022/02/19 04:15:09;;;;;;;8.90;3.75;;;;;;;2.73;62.24;98400.20;1800040;79;21122;-39
2022/02/19 04:17:39;;;;;;;8.98;3.75;;;;;;;2.77;62.33;98385.05;1744200;79;21172;-39
2022/02/19 04:20:08;;;;;;;8.18;3.90;;;;;;;2.74;62.02;98384.94;1777185;79;20898;-39
2022/02/19 04:22:39;;;;;;;10.55;3.47;;;;;;;2.78;62.02;98373.23;1787819;79;20965;-39
2022/02/19 04:25:09;;;;;;;8.45;3.87;;;;;;;2.81;62.05;98373.90;1794409;79;20978;-39
2022/02/19 04:27:35;;;;;;;;;;;;;;;2.83;61.71;98370.34;1783446;79;21106;-39
2022/02/19 04:30:05;;;;;;;10.72;4.50;;;;;;;2.84;61.66;98375.93;1792560;79;20126;-39
2022/02/19 04:32:33;;;;;;;10.25;3.90;;;;;;;2.76;61.75;98374.70;1758944;79;21044;-39
2022/02/19 04:35:00;;;;;;;10.35;4.03;;;;;;;2.82;61.97;98357.29;1786126;79;21040;-39
2022/02/19 04:37:29;;;;;;;12.10;3.62;;;;;;;2.84;61.84;98363.10;1792659;79;21091;-39
2022/02/19 04:39:56;;;;;;;8.05;4.08;;;;;;;2.83;61.62;98360.98;1795645;79;21762;-39
2022/02/19 04:42:25;;;;;;;6.50;3.42;;;;;;;2.85;61.13;98366.01;1802400;79;21024;-39
2022/02/19 04:44:51;;;;;;;8.40;3.77;;;;;;;2.86;60.95;98344.24;1795643;79;20963;-39
2022/02/19 04:47:18;;;;;;;5.40;3.62;;;;;;;2.88;60.69;98346.05;1774456;79;21005;-39
2022/02/19 04:49:46;;;;;;;8.30;4.20;;;;;;;2.91;60.72;98352.06;1779343;79;21017;-39
2022/02/19 04:52:13;;;;;;;7.72;3.80;;;;;;;2.93;60.84;98349.05;1783953;78;21183;-39
2022/02/19 04:54:41;;;;;;;8.93;3.83;;;;;;;2.95;60.66;98352.20;1772287;78;20977;-39
2022/02/19 04:57:09;;;;;;;8.88;3.77;;;;;;;2.95;60.72;98351.61;1795939;79;20997;-39
2022/02/19 04:59:36;;;;;;;7.03;3.40;;;;;;;2.98;60.85;98348.28;1787677;79;21017;-39
2022/02/19 05:02:04;;;;;;;7.95;3.85;;;;;;;2.97;60.90;98346.72;1783792;79;21488;-39
2022/02/19 05:04:32;;;;;;;6.63;3.60;;;;;;;2.97;60.91;98354.75;1779885;78;21027;-39
2022/02/19 05:07:16;;;;;;;7.50;3.50;;;;;;;2.98;60.97;98350.17;1778680;78;21035;-39
2022/02/19 05:09:43;;;;;;;7.85;3.58;;;;;;;2.96;61.12;98358.53;1775133;78;20997;-39
2022/02/19 05:12:12;;;;;;;8.98;3.75;;;;;;;2.96;61.00;98366.56;1776378;78;21006;-39
2022/02/19 05:14:41;;;;;;;11.07;3.60;;;;;;;2.95;61.18;98360.98;1788928;79;21035;-39
2022/02/19 05:17:18;;;;;;;6.65;3.40;;;;;;;2.95;61.75;98348.17;1773147;78;21964;-39
2022/02/19 05:19:47;;;;;;;9.73;3.77;;;;;;;2.94;61.96;98331.33;1781514;79;21029;-39
2022/02/19 05:22:14;;;;;;;6.80;3.75;;;;;;;2.92;63.91;98344.81;1785836;79;21000;-39
2022/02/19 05:24:42;;;;;;;11.10;4.00;;;;;;;2.85;65.22;98362.78;1789188;79;21504;-39
2022/02/19 05:27:11;;;;;;;7.70;3.67;;;;;;;2.78;66.21;98350.48;1795775;79;21533;-39
2022/02/19 05:29:38;;;;;;;8.95;3.45;;;;;;;2.72;67.89;98353.14;1779587;79;21130;-39
2022/02/19 05:32:08;;;;;;;10.08;3.77;;;;;;;2.61;69.09;98355.45;1779897;79;20992;-39
2022/02/19 05:34:37;;;;;;;9.45;3.85;;;;;;;2.48;70.09;98367.80;1738413;80;20942;-39
2022/02/19 05:37:05;;;;;;;9.73;3.90;;;;;;;2.38;70.92;98359.64;1737621;80;20946;-39
2022/02/19 05:39:35;;;;;;;8.28;3.95;;;;;;;2.30;71.46;98352.48;1734659;80;21033;-39
2022/02/19 05:42:04;;;;;;;7.17;4.00;;;;;;;2.22;72.12;98364.61;1729275;82;21129;-39
2022/02/19 05:44:31;;;;;;;6.20;3.47;;;;;;;2.09;72.65;98327.66;1728185;82;20973;-39
2022/02/19 05:46:59;;;;;;;7.08;3.50;;;;;;;2.07;73.11;98329.91;1714681;82;21005;-39
2022/02/19 05:49:27;;;;;;;6.87;3.80;;;;;;;2.02;73.77;98326.09;1723392;80;21547;-39
2022/02/19 05:52:07;;;;;;;10.45;4.15;;;;;;;2.02;74.21;98317.52;1727624;82;21084;-38
2022/02/19 05:54:35;;;;;;;8.93;4.15;;;;;;;1.98;74.52;98299.25;1737752;82;21129;-39
2022/02/19 05:57:07;;;;;;;7.72;3.75;;;;;;;1.93;74.89;98292.77;1716133;82;21029;-39
2022/02/19 05:59:34;;;;;;;7.15;3.55;;;;;;;1.95;75.03;98297.77;1726884;82;20989;-39
2022/02/19 06:02:01;;;;;;;7.90;3.83;;;;;;;1.97;75.16;98289.66;1728915;82;21065;-39
2022/02/19 06:04:28;;;;;;;7.00;3.27;;;;;;;2.02;75.09;98282.77;1742027;82;21017;-39
2022/02/19 06:06:55;;;;;;;7.28;3.77;;;;;;;2.03;75.04;98292.91;1730239;82;21098;-39
2022/02/19 06:09:24;;;;;;;7.42;3.30;;;;;;;2.06;74.95;98301.05;1704187;82;21093;-39
2022/02/19 06:11:51;;;;;;;7.33;3.62;;;;;;;2.13;74.67;98294.59;1716736;82;20930;-39
2022/02/19 06:14:26;;;;;;;6.90;3.65;;;;;;;2.22;74.24;98311.13;1713445;82;21286;-39
2022/02/19 06:16:55;;;;;;;7.55;3.65;;;;;;;2.23;73.73;98305.43;1727258;82;21550;-39
2022/02/19 06:19:23;;;;;;;9.65;3.92;;;;;;;2.24;73.24;98318.25;1730669;82;21118;-39
2022/02/19 06:21:50;;;;;;;7.20;3.33;;;;;;;2.32;72.97;98302.69;1728923;82;21009;-39
2022/02/19 06:24:18;;;;;;;7.72;3.80;;;;;;;2.41;72.43;98287.33;1731398;82;21048;-39
2022/02/19 06:26:45;;;;;;;7.22;3.70;;;;;;;2.47;71.49;98287.35;1710130;83;22838;-39
2022/02/19 06:29:23;;;;;;;10.58;3.80;;;;;;;2.50;70.68;98289.35;1771881;80;21006;-39
2022/02/19 06:31:51;;;;;;;10.28;3.52;;;;;;;2.53;69.93;98290.02;1728461;81;21131;-39
2022/02/19 06:34:18;;;;;;;7.60;3.25;;;;;;;2.55;69.04;98273.88;1722972;80;21559;-39
2022/02/19 06:36:45;;;;;;;7.72;3.58;;;;;;;2.63;68.66;98274.31;1723562;82;21020;-39
2022/02/19 06:39:14;;;;;;;8.83;3.67;;;;;;;2.71;67.76;98286.02;1711496;82;21778;-39
2022/02/19 06:41:40;;;;;;;9.18;3.40;;;;;;;2.76;66.78;98289.81;1713334;82;21544;-39
2022/02/19 06:44:11;;;;;;;6.67;3.62;;;;;;;2.82;66.10;98276.44;1718301;82;21072;-39
2022/02/19 06:46:40;;;;;;;7.75;3.83;;;;;;;2.84;65.15;98264.07;1709051;82;21878;-39
2022/02/19 06:49:07;;;;;;;7.30;3.00;;;;;;;2.91;64.98;98277.10;1721884;82;21081;-39
2022/02/19 06:51:36;;;;;;;;;;;;;;;2.94;64.17;98265.74;1723592;82;21033;-39
2022/02/19 06:54:03;;;;;;;8.15;3.42;;;;;;;2.97;63.00;98251.67;1723009;82;20154;-39
2022/02/19 06:56:30;;;;;;;8.08;3.40;;;;;;;2.94;62.71;98240.31;1716131;81;21675;-39
2022/02/19 06:58:59;;;;;;;7.53;3.15;;;;;;;3.02;63.10;98236.72;1730924;82;20907;-39
2022/02/19 07:01:27;;;;;;;6.70;2.90;;;;;;;3.08;62.34;98265.39;1711948;82;21017;-39
2022/02/19 07:03:56;;;;;;;7.78;3.12;;;;;;;3.13;62.03;98253.11;1725317;82;21531;-39
2022/02/19 07:06:37;;;;;;;10.85;3.33;;;;;;;3.19;61.82;98228.23;1672329;82;21046;-39
2022/02/19 07:09:04;;;;;;;10.28;3.70;;;;;;;3.24;61.76;98233.35;1724184;82;21149;-40
2022/02/19 07:11:31;;;;;;;8.70;3.00;;;;;;;3.28;61.68;98196.73;1722946;82;21065;-39
2022/02/19 07:13:58;;;;;;;9.78;3.75;;;;;;;3.35;61.03;98208.97;1732497;82;21089;-39
2022/02/19 07:16:25;;;;;;;6.80;2.90;;;;;;;3.37;60.26;98176.72;1733579;82;21073;-39
2022/02/19 07:18:53;;;;;;;9.65;3.58;;;;;;;3.44;60.30;98185.50;1783467;79;21001;-39
2022/02/19 07:21:21;;;;;;;6.97;2.83;;;;;;;3.46;59.83;98180.59;1787682;78;21828;-39
2022/02/19 07:23:48;;;;;;;7.40;3.00;;;;;;;3.47;60.13;98211.63;1744325;80;21066;-39
2022/02/19 07:26:18;;;;;;;7.12;2.92;;;;;;;3.52;60.14;98224.00;1736995;82;21151;-39
2022/02/19 07:28:46;;;;;;;10.30;3.65;;;;;;;3.54;60.28;98236.48;1726202;82;21321;-39
2022/02/19 07:31:13;;;;;;;6.47;3.12;;;;;;;3.54;60.85;98230.56;1789783;79;21491;-37
2022/02/19 07:33:40;;;;;;;7.80;2.92;;;;;;;3.49;60.58;98256.27;1796812;79;21128;-37
2022/02/19 07:36:08;;;;;;;7.78;3.02;;;;;;;3.45;60.50;98260.74;1782969;79;21065;-37
2022/02/19 07:38:37;;;;;;;6.37;3.02;;;;;;;3.49;61.39;98240.97;1794036;79;20982;-37
2022/02/19 07:43:26;;;;;;;6.95;3.02;;;;;;;3.54;61.84;98219.85;1804253;78;22082;-37
2022/02/19 07:46:11;;;;;;;9.03;3.35;;;;;;;3.45;61.47;98247.34;1801177;79;21539;-37
2022/02/19 07:48:56;;;;;;;7.03;3.35;;;;;;;3.47;61.75;98251.81;1791262;79;21136;-37
2022/02/19 08:00:15;;;;;;;9.13;3.50;;;;;;;3.46;63.00;98253.72;1779161;79;21000;-37
2022/02/19 08:02:42;;;;;;;5.50;2.97;;;;;;;3.44;62.98;98241.20;1791249;79;21159;-37
2022/02/19 08:05:09;;;;;;;7.28;3.30;;;;;;;3.47;62.90;98245.12;1789242;79;20957;-37
2022/02/19 08:07:38;;;;;;;4.55;3.05;;;;;;;3.47;62.72;98263.32;1787015;79;20984;-37
2022/02/19 08:10:07;;;;;;;9.40;3.30;;;;;;;3.47;62.64;98270.57;1791136;79;21496;-37
2022/02/19 08:12:34;;;;;;;7.83;3.33;;;;;;;3.49;62.16;98266.98;1802562;79;21080;-37
2022/02/19 08:15:02;;;;;;;6.67;3.00;;;;;;;3.54;62.33;98265.41;1774703;79;21137;-37
2022/02/19 08:17:29;;;;;;;8.10;3.55;;;;;;;3.57;62.40;98240.63;1788563;79;20945;-37
2022/02/19 08:19:57;;;;;;;6.78;3.10;;;;;;;3.60;62.39;98253.33;1776185;79;21037;-37
2022/02/19 08:22:25;;;;;;;7.78;3.12;;;;;;;3.63;62.34;98255.32;1782080;79;21009;-37
2022/02/19 08:24:52;;;;;;;7.00;3.05;;;;;;;3.65;62.09;98234.34;1730144;82;21041;-37
2022/02/19 08:27:18;;;;;;;9.18;3.20;;;;;;;3.64;62.14;98240.81;1736380;81;21121;-37
2022/02/19 08:29:45;;;;;;;8.15;3.15;;;;;;;3.69;62.02;98229.06;1743543;81;21052;-37
2022/02/19 08:32:12;;;;;;;6.72;2.95;;;;;;;3.70;61.53;98253.41;1742938;82;21003;-37
2022/02/19 08:34:39;;;;;;;7.30;3.10;;;;;;;3.73;61.58;98254.84;1737010;81;21830;-37
2022/02/19 08:37:06;;;;;;;6.25;3.20;;;;;;;3.77;61.47;98228.16;1736994;81;21057;-37
2022/02/19 08:39:32;;;;;;;7.45;3.37;;;;;;;3.79;61.44;98222.66;1738518;80;21113;-37
2022/02/19 08:42:03;;;;;;;6.25;3.35;;;;;;;3.83;60.95;98224.09;1737850;81;21004;-37
2022/02/19 08:44:30;;;;;;;9.18;3.20;;;;;;;3.86;61.17;98216.16;1736232;81;21039;-37
2022/02/19 08:46:57;;;;;;;6.58;2.92;;;;;;;3.91;61.12;98231.22;1732820;81;21044;-37
2022/02/19 08:49:25;;;;;;;8.30;2.72;;;;;;;3.92;60.83;98248.28;1736453;81;21378;-37
2022/02/19 08:51:52;;;;;;;5.33;3.00;;;;;;;3.94;60.79;98231.86;1748158;81;21104;-37
2022/02/19 08:54:18;;;;;;;6.17;2.60;;;;;;;3.98;60.89;98209.94;1742829;81;21052;-37
2022/02/19 08:56:47;;;;;;;4.55;2.65;;;;;;;3.99;60.98;98236.20;1739955;81;21649;-37
2022/02/19 08:59:14;;;;;;;7.42;3.12;;;;;;;4.01;60.71;98225.92;1741095;80;21012;-37
2022/02/19 09:01:41;;;;;;;8.55;3.20;;;;;;;4.03;61.00;98219.63;1743603;80;21028;-37
2022/02/19 09:04:09;;;;;;;9.63;3.40;;;;;;;4.02;60.67;98252.38;1732538;81;21211;-38
2022/02/19 09:06:36;;;;;;;6.42;3.10;;;;;;;4.02;60.82;98252.95;1743266;81;20941;-37
2022/02/19 09:09:05;;;;;;;5.83;3.10;;;;;;;4.05;61.08;98279.86;1731474;81;21025;-37
2022/02/19 09:11:35;;;;;;;5.58;3.02;;;;;;;4.04;61.34;98294.95;1730681;81;21483;-37
2022/02/19 09:14:03;;;;;;;7.70;2.67;;;;;;;4.03;61.18;98282.09;1741566;81;21537;-38
2022/02/19 09:16:36;;;;;;;5.58;2.77;;;;;;;4.08;61.29;98268.44;1734547;81;20997;-37
2022/02/19 09:19:02;;;;;;;8.23;3.08;;;;;;;4.14;61.35;98244.84;1735488;81;21495;-37
2022/02/19 09:21:31;;;;;;;6.37;2.90;;;;;;;4.17;61.50;98270.96;1727107;81;21012;-37
2022/02/19 09:23:57;;;;;;;7.47;3.27;;;;;;;4.17;61.42;98266.38;1746947;81;20941;-37
2022/02/19 09:26:24;;;;;;;5.87;2.85;;;;;;;4.17;61.43;98296.44;1727915;81;20976;-37
2022/02/19 09:28:51;;;;;;;9.60;3.75;;;;;;;4.19;61.53;98258.78;1726737;81;21910;-37
2022/02/19 09:31:19;;;;;;;7.15;3.85;;;;;;;4.20;61.57;98267.05;1723623;81;20984;-38
2022/02/19 09:33:47;;;;;;;8.50;3.35;;;;;;;4.23;61.43;98223.99;1722489;81;21225;-37
2022/02/19 09:36:13;;;;;;;6.55;3.42;;;;;;;4.26;61.53;98196.49;1730486;81;20942;-37
2022/02/19 09:38:40;;;;;;;6.45;3.30;;;;;;;4.33;61.47;98205.48;1725216;80;21844;-37
2022/02/19 09:41:07;;;;;;;6.58;3.00;;;;;;;4.40;61.38;98184.77;1743672;81;21566;-37
2022/02/19 09:43:35;;;;;;;8.00;3.62;;;;;;;4.49;60.95;98158.53;1732058;81;21017;-37
2022/02/19 09:46:06;;;;;;;7.15;3.30;;;;;;;4.61;61.15;98179.88;1734686;82;20985;-37
2022/02/19 09:48:33;;;;;;;7.95;3.62;;;;;;;4.69;61.21;98152.09;1738933;82;21591;-38
2022/02/19 09:51:00;;;;;;;7.45;3.00;;;;;;;4.74;60.93;98142.98;1732253;82;21045;-38
2022/02/19 09:53:30;;;;;;;7.17;3.27;;;;;;;4.78;61.01;98152.67;1729701;82;21150;-38
2022/02/19 09:55:57;;;;;;;7.87;3.53;;;;;;;4.84;60.88;98202.08;1735760;82;21020;-38
2022/02/19 09:58:24;;;;;;;6.05;3.05;;;;;;;4.86;60.37;98179.66;1775371;79;20998;-38
2022/02/19 10:00:51;;;;;;;9.63;4.08;;;;;;;4.88;60.38;98190.28;1785409;79;21008;-37
2022/02/19 10:03:25;;;;;;;7.30;3.15;;;;;;;4.88;60.40;98202.37;1801475;79;20971;-37
2022/02/19 10:05:55;;;;;;;6.08;3.70;;;;;;;4.89;60.63;98229.41;1790688;79;21099;-37
2022/02/19 10:08:22;;;;;;;7.00;3.52;;;;;;;4.87;60.48;98226.31;1789923;79;20931;-37
2022/02/19 10:10:54;;;;;;;7.75;3.85;;;;;;;4.89;60.71;98221.95;1782887;79;21598;-37
2022/02/19 10:13:36;;;;;;;5.92;3.62;;;;;;;4.92;60.76;98205.13;1793784;79;20890;-37
2022/02/19 10:16:05;;;;;;;10.05;4.20;;;;;;;4.97;60.67;98210.23;1788076;79;21025;-37
2022/02/19 10:18:36;;;;;;;7.35;4.25;;;;;;;5.01;60.65;98248.13;1800343;79;21106;-37
2022/02/19 10:21:19;;;;;;;9.03;3.90;;;;;;;5.05;60.49;98234.77;1777383;79;20961;-38
2022/02/19 10:23:56;;;;;;;8.60;3.85;;;;;;;5.09;60.77;98238.30;1781174;79;21766;-38
2022/02/19 10:26:31;;;;;;;9.55;4.55;;;;;;;5.14;60.60;98229.97;1779516;79;21037;-38
2022/02/19 10:29:05;;;;;;;11.70;5.08;;;;;;;5.22;60.54;98226.33;1797677;78;21097;-37
2022/02/19 10:31:33;;;;;;;13.68;5.30;;;;;;;5.24;60.52;98242.30;1782030;78;21789;-38
2022/02/19 10:34:09;;;;;;;9.78;4.05;;;;;;;5.27;60.76;98239.49;1792078;79;21503;-37
2022/02/19 10:36:50;;;;;;;12.30;4.20;;;;;;;5.27;60.61;98268.27;1785346;79;21106;-38
2022/02/19 10:39:34;;;;;;;8.78;4.22;;;;;;;5.25;60.79;98253.83;1779147;79;21033;-38
2022/02/19 10:42:06;;;;;;;5.05;3.47;;;;;;;5.25;60.72;98256.52;1795830;79;21029;-38
2022/02/19 10:44:35;;;;;;;9.83;3.92;;;;;;;5.24;60.96;98256.30;1788826;79;21119;-38
2022/02/19 10:47:25;;;;;;;8.40;4.47;;;;;;;5.23;61.02;98250.70;1770669;79;21664;-37
2022/02/19 10:50:11;;;;;;;9.40;4.00;;;;;;;5.21;60.98;98235.52;1790785;79;22278;-37
2022/02/19 10:52:43;;;;;;;8.85;4.05;;;;;;;5.18;61.19;98234.89;1793233;79;20965;-37
2022/02/19 10:55:17;;;;;;;7.50;3.85;;;;;;;5.17;61.54;98217.98;1796342;79;21809;-38
2022/02/19 10:57:45;;;;;;;11.08;4.10;;;;;;;5.24;61.42;98233.46;1797462;79;21496;-37
2022/02/19 11:00:18;;;;;;;10.18;4.67;;;;;;;5.36;61.25;98224.51;1790072;78;20987;-38
2022/02/19 11:02:47;;;;;;;9.65;4.28;;;;;;;5.42;61.20;98222.52;1786029;79;20930;-37
2022/02/19 11:05:14;;;;;;;8.60;4.37;;;;;;;5.47;61.09;98225.52;1784951;79;21047;-38
2022/02/19 11:07:43;;;;;;;10.65;4.62;;;;;;;5.50;61.14;98225.58;1715115;81;21101;-37
2022/02/19 11:10:15;;;;;;;9.48;4.47;;;;;;;5.52;60.99;98231.36;1754973;81;21072;-38
2022/02/19 11:12:43;;;;;;;6.30;3.90;;;;;;;5.53;61.12;98235.61;1709472;83;21021;-37
2022/02/19 11:15:10;;;;;;;8.70;4.50;;;;;;;5.54;61.04;98226.42;1759157;81;21788;-37
2022/02/19 11:17:38;;;;;;;8.48;4.40;;;;;;;5.55;61.06;98234.71;1709534;83;21093;-38
2022/02/19 11:20:11;;;;;;;7.05;4.15;;;;;;;5.58;61.06;98207.11;1784005;79;21068;-37
2022/02/19 11:22:39;;;;;;;10.63;4.50;;;;;;;5.60;61.12;98215.61;1770040;78;21101;-38
2022/02/19 11:25:09;;;;;;;7.28;2.95;;;;;;;5.59;61.14;98226.14;1777804;79;21000;-37
2022/02/19 11:27:40;;;;;;;8.45;3.45;;;;;;;5.61;61.29;98236.55;1773156;79;20910;-38
2022/02/19 11:30:09;;;;;;;9.35;4.42;;;;;;;5.65;61.39;98237.40;1777341;79;21012;-37
2022/02/19 11:32:39;;;;;;;9.83;4.17;;;;;;;5.72;61.44;98230.02;1779111;79;21517;-37
2022/02/19 11:35:07;;;;;;;9.08;4.90;;;;;;;5.74;61.40;98243.91;1790925;79;21111;-37
2022/02/19 11:37:42;;;;;;;9.15;5.12;;;;;;;5.81;61.20;98242.71;1779374;79;21013;-37
2022/02/19 11:40:15;;;;;;;10.38;4.45;;;;;;;5.89;61.32;98239.05;1774803;79;21025;-37
2022/02/19 11:42:51;;;;;;;8.60;4.55;;;;;;;5.98;61.15;98236.91;1774709;79;21641;-38
2022/02/19 11:45:30;;;;;;;7.10;4.08;;;;;;;6.07;60.85;98213.25;1787250;78;21040;-37
2022/02/19 11:48:08;;;;;;;9.87;3.83;;;;;;;6.17;60.87;98226.12;1782491;79;21829;-38
2022/02/19 11:50:40;;;;;;;10.55;4.12;;;;;;;6.24;60.90;98230.86;1804206;79;20954;-37
2022/02/19 11:53:17;;;;;;;8.00;3.80;;;;;;;6.28;60.59;98222.27;1806166;78;21021;-37
2022/02/19 11:55:45;;;;;;;10.13;4.40;;;;;;;6.33;60.61;98221.98;1806819;79;20970;-39
2022/02/19 11:58:22;;;;;;;9.38;4.30;;;;;;;6.35;60.71;98211.05;1807450;78;20978;-37
2022/02/19 12:00:57;;;;;;;9.08;4.42;;;;;;;6.36;60.58;98207.22;1806641;79;21134;-37